createdAt,value
2018-08-20T00:01:39.620Z,11.50
2018-08-20T00:04:09.345Z,11.27
2018-08-20T00:06:48.997Z,11.60
2018-08-20T00:09:17.183Z,11.80
2018-08-20T00:11:45.236Z,11.00
2018-08-20T00:14:12.966Z,11.53
2018-08-20T00:16:40.692Z,11.00
2018-08-20T00:19:12.718Z,11.43
2018-08-20T00:21:40.663Z,11.57
2018-08-20T00:24:08.397Z,11.43
2018-08-20T00:26:36.197Z,11.97
2018-08-20T00:29:05.414Z,12.17
2018-08-20T00:31:33.181Z,11.53
2018-08-20T00:34:00.838Z,13.00
2018-08-20T00:36:28.523Z,11.37
2018-08-20T00:38:56.183Z,11.17
2018-08-20T00:41:23.829Z,12.73
2018-08-20T00:43:51.556Z,11.37
2018-08-20T00:46:19.214Z,12.93
2018-08-20T00:48:46.915Z,14.20
2018-08-20T00:51:14.595Z,13.13
2018-08-20T00:53:42.274Z,15.13
2018-08-20T00:56:10.854Z,16.50
2018-08-20T00:58:38.547Z,17.90
2018-08-20T01:01:06.758Z,16.17
2018-08-20T01:03:34.435Z,16.70
2018-08-20T01:06:02.179Z,16.73
2018-08-20T01:08:29.857Z,16.33
2018-08-20T01:10:57.589Z,18.73
2018-08-20T01:13:25.263Z,19.33
2018-08-20T01:15:52.959Z,15.97
2018-08-20T01:18:20.642Z,14.77
2018-08-20T01:20:48.334Z,14.17
2018-08-20T01:23:16.041Z,13.20
2018-08-20T01:25:43.741Z,15.50
2018-08-20T01:28:11.443Z,15.40
2018-08-20T01:30:39.119Z,14.77
2018-08-20T01:33:12.146Z,14.63
2018-08-20T01:35:39.826Z,15.83
2018-08-20T01:38:07.485Z,18.63
2018-08-20T01:40:35.186Z,17.77
2018-08-20T01:43:02.894Z,20.10
2018-08-20T01:45:30.608Z,19.90
2018-08-20T01:47:58.281Z,19.40
2018-08-20T01:50:25.961Z,17.13
2018-08-20T01:52:53.686Z,17.37
2018-08-20T01:55:21.387Z,15.93
2018-08-20T01:57:49.058Z,16.30
2018-08-20T02:00:16.731Z,16.07
2018-08-20T02:02:48.891Z,16.40
2018-08-20T02:05:16.626Z,16.33
2018-08-20T02:07:44.406Z,16.30
2018-08-20T02:10:12.057Z,17.27
2018-08-20T02:12:40.742Z,17.27
2018-08-20T02:15:08.434Z,16.83
2018-08-20T02:17:36.191Z,19.13
2018-08-20T02:20:04.112Z,16.50
2018-08-20T02:22:31.978Z,17.13
2018-08-20T02:24:59.763Z,15.97
2018-08-20T02:27:27.501Z,16.47
2018-08-20T02:29:55.161Z,18.67
2018-08-20T02:32:22.883Z,17.20
2018-08-20T02:34:50.533Z,16.20
2018-08-20T02:37:18.226Z,15.47
2018-08-20T02:39:45.914Z,16.23
2018-08-20T02:42:13.707Z,15.77
2018-08-20T02:44:41.395Z,16.67
2018-08-20T02:47:09.072Z,15.70
2018-08-20T02:49:36.839Z,16.10
2018-08-20T02:52:04.737Z,15.63
2018-08-20T02:54:32.403Z,15.90
2018-08-20T02:57:00.098Z,16.60
2018-08-20T02:59:27.799Z,16.80
2018-08-20T03:01:55.535Z,15.37
2018-08-20T03:04:23.204Z,15.70
2018-08-20T03:06:50.878Z,17.53
2018-08-20T03:09:18.574Z,17.03
2018-08-20T03:11:46.298Z,14.57
2018-08-20T03:14:14.107Z,15.17
2018-08-20T03:16:41.769Z,14.87
2018-08-20T03:19:10.192Z,15.53
2018-08-20T03:21:37.878Z,20.00
2018-08-20T03:24:05.879Z,15.77
2018-08-20T03:26:33.677Z,19.77
2018-08-20T03:29:01.402Z,16.40
2018-08-20T03:31:29.469Z,16.77
2018-08-20T03:33:57.179Z,16.23
2018-08-20T03:36:24.950Z,17.77
2018-08-20T03:38:52.611Z,17.93
2018-08-20T03:41:20.345Z,17.37
2018-08-20T03:43:48.025Z,18.63
2018-08-20T03:46:15.749Z,16.93
2018-08-20T03:48:43.409Z,16.83
2018-08-20T03:51:11.095Z,19.90
2018-08-20T03:53:38.823Z,17.80
2018-08-20T03:56:06.585Z,13.90
2018-08-20T03:58:34.277Z,17.80
2018-08-20T04:01:02.510Z,17.13
2018-08-20T04:03:30.399Z,16.53
2018-08-20T04:05:58.102Z,17.43
2018-08-20T04:08:25.772Z,14.03
2018-08-20T04:10:53.417Z,14.53
2018-08-20T04:13:21.066Z,15.97
2018-08-20T04:15:48.761Z,13.93
2018-08-20T04:18:16.400Z,16.10
2018-08-20T04:20:44.106Z,14.93
2018-08-20T04:23:11.829Z,12.97
2018-08-20T04:25:39.542Z,10.87
2018-08-20T04:28:07.218Z,11.47
2018-08-20T04:30:34.971Z,14.63
2018-08-20T04:33:02.591Z,11.87
2018-08-20T04:35:30.273Z,11.27
2018-08-20T04:37:57.938Z,11.30
2018-08-20T04:40:25.666Z,11.47
2018-08-20T04:42:53.326Z,11.60
2018-08-20T04:45:21.059Z,11.00
2018-08-20T04:47:48.758Z,10.43
2018-08-20T04:50:16.654Z,11.90
2018-08-20T04:52:44.169Z,10.50
2018-08-20T04:55:11.874Z,13.57
2018-08-20T04:57:39.565Z,11.60
2018-08-20T05:00:09.434Z,11.63
2018-08-20T05:02:37.138Z,12.40
2018-08-20T05:05:04.882Z,12.07
2018-08-20T05:07:32.780Z,10.77
2018-08-20T05:10:00.676Z,14.60
2018-08-20T05:12:28.357Z,11.50
2018-08-20T05:14:56.018Z,9.70
2018-08-20T05:17:23.779Z,12.07
2018-08-20T05:19:51.487Z,12.50
2018-08-20T05:22:19.150Z,10.40
2018-08-20T05:24:46.822Z,15.23
2018-08-20T05:27:14.583Z,19.90
2018-08-20T05:29:42.319Z,14.23
2018-08-20T05:32:09.991Z,16.17
2018-08-20T05:34:37.649Z,16.27
2018-08-20T05:37:05.425Z,18.67
2018-08-20T05:39:34.521Z,17.70
2018-08-20T05:42:02.368Z,13.90
2018-08-20T05:44:30.024Z,15.03
2018-08-20T05:46:57.715Z,12.67
2018-08-20T05:49:25.388Z,13.57
2018-08-20T05:51:53.122Z,14.53
2018-08-20T05:54:21.022Z,13.97
2018-08-20T05:56:48.701Z,16.57
2018-08-20T05:59:16.423Z,14.33
2018-08-20T06:01:44.143Z,19.97
2018-08-20T06:04:11.853Z,18.37
2018-08-20T06:06:39.629Z,16.80
2018-08-20T06:09:08.709Z,14.03
2018-08-20T06:11:36.378Z,13.27
2018-08-20T06:14:04.535Z,12.63
2018-08-20T06:16:32.402Z,12.90
2018-08-20T06:19:00.141Z,13.10
2018-08-20T06:21:27.810Z,11.97
2018-08-20T06:23:55.584Z,12.90
2018-08-20T06:26:23.306Z,13.07
2018-08-20T06:28:50.998Z,12.37
2018-08-20T06:31:18.713Z,12.97
2018-08-20T06:33:46.397Z,11.63
2018-08-20T06:36:14.152Z,12.10
2018-08-20T06:38:41.856Z,12.07
2018-08-20T06:41:09.557Z,13.90
2018-08-20T06:43:37.273Z,12.87
2018-08-20T06:46:05.040Z,11.97
2018-08-20T06:48:33.749Z,12.43
2018-08-20T06:51:01.433Z,15.90
2018-08-20T06:53:29.101Z,12.97
2018-08-20T06:55:56.798Z,16.67
2018-08-20T06:58:24.520Z,13.47
2018-08-20T07:00:52.313Z,14.57
2018-08-20T07:03:20.369Z,16.30
2018-08-20T07:05:48.151Z,16.30
2018-08-20T07:08:15.916Z,16.37
2018-08-20T07:10:46.132Z,12.97
2018-08-20T07:13:25.573Z,12.43
2018-08-20T07:15:53.521Z,13.70
2018-08-20T07:18:21.258Z,13.93
2018-08-20T07:20:54.378Z,13.10
2018-08-20T07:23:22.067Z,11.90
2018-08-20T07:25:49.850Z,12.27
2018-08-20T07:28:17.615Z,13.17
2018-08-20T07:30:45.590Z,12.60
2018-08-20T07:33:13.257Z,14.30
2018-08-20T07:35:40.970Z,14.20
2018-08-20T07:38:08.989Z,12.17
2018-08-20T07:40:36.761Z,11.23
2018-08-20T07:43:04.579Z,12.10
2018-08-20T07:45:32.256Z,11.93
2018-08-20T07:48:00.072Z,10.30
2018-08-20T07:50:27.822Z,10.90
2018-08-20T07:52:55.477Z,11.30
2018-08-20T07:55:23.177Z,11.30
2018-08-20T07:57:50.861Z,14.60
2018-08-20T08:00:18.650Z,10.20
2018-08-20T08:02:46.370Z,9.97
2018-08-20T08:05:14.154Z,11.77
2018-08-20T08:07:41.961Z,10.00
2018-08-20T08:10:12.889Z,15.87
2018-08-20T08:12:40.620Z,10.87
2018-08-20T08:15:10.173Z,10.30
2018-08-20T08:17:37.930Z,10.03
2018-08-20T08:20:07.167Z,11.67
2018-08-20T08:22:34.978Z,12.03
2018-08-20T08:25:02.714Z,10.00
2018-08-20T08:27:30.526Z,9.00
2018-08-20T08:29:58.279Z,12.27
2018-08-20T08:32:26.046Z,11.17
2018-08-20T08:34:53.717Z,11.30
2018-08-20T08:37:21.400Z,12.23
2018-08-20T08:39:49.142Z,9.33
2018-08-20T08:42:16.845Z,8.93
2018-08-20T08:44:44.586Z,14.60
2018-08-20T08:47:12.347Z,8.40
2018-08-20T08:49:40.062Z,10.13
2018-08-20T08:52:07.808Z,13.33
2018-08-20T08:54:35.816Z,9.20
2018-08-20T08:57:03.568Z,8.13
2018-08-20T08:59:31.314Z,6.67
2018-08-20T09:01:59.096Z,8.73
2018-08-20T09:04:26.835Z,8.03
2018-08-20T09:06:54.514Z,10.30
2018-08-20T09:09:22.237Z,9.20
2018-08-20T09:11:49.921Z,8.03
2018-08-20T09:14:17.613Z,6.40
2018-08-20T09:16:45.343Z,6.73
2018-08-20T09:19:13.065Z,7.17
2018-08-20T09:21:40.797Z,9.83
2018-08-20T09:24:08.633Z,5.37
2018-08-20T09:26:36.653Z,8.33
2018-08-20T09:29:04.460Z,8.27
2018-08-20T09:31:32.261Z,5.17
2018-08-20T09:33:59.981Z,6.33
2018-08-20T09:36:27.685Z,7.90
2018-08-20T09:38:55.446Z,7.10
2018-08-20T09:41:23.178Z,7.07
2018-08-20T09:43:50.934Z,5.23
2018-08-20T09:46:18.583Z,7.23
2018-08-20T09:48:46.290Z,5.30
2018-08-20T09:51:14.018Z,5.27
2018-08-20T09:53:41.888Z,5.13
2018-08-20T09:56:09.740Z,5.53
2018-08-20T09:58:37.546Z,6.57
2018-08-20T10:01:05.336Z,7.60
2018-08-20T10:03:33.037Z,6.23
2018-08-20T10:06:00.766Z,6.03
2018-08-20T10:08:28.533Z,6.30
2018-08-20T10:10:56.264Z,5.63
2018-08-20T10:13:24.014Z,5.00
2018-08-20T10:15:51.782Z,7.17
2018-08-20T10:18:19.577Z,4.90
2018-08-20T10:20:47.393Z,8.13
2018-08-20T10:23:15.160Z,5.00
2018-08-20T10:25:42.873Z,7.23
2018-08-20T10:28:10.615Z,6.40
2018-08-20T10:30:38.293Z,7.03
2018-08-20T10:33:06.983Z,8.27
2018-08-20T10:35:34.700Z,6.57
2018-08-20T10:38:02.512Z,8.37
2018-08-20T10:40:30.185Z,6.63
2018-08-20T10:42:57.921Z,4.83
2018-08-20T10:45:31.556Z,6.67
2018-08-20T10:47:59.352Z,4.47
2018-08-20T10:50:27.092Z,6.47
2018-08-20T10:52:54.815Z,6.17
2018-08-20T10:55:22.605Z,6.23
2018-08-20T10:57:50.417Z,6.43
2018-08-20T11:00:18.205Z,5.77
2018-08-20T11:02:46.308Z,5.87
2018-08-20T11:05:16.736Z,5.30
2018-08-20T11:07:44.548Z,5.07
2018-08-20T11:10:12.414Z,7.37
2018-08-20T11:12:40.186Z,6.87
2018-08-20T11:15:09.531Z,4.97
2018-08-20T11:17:37.737Z,4.97
2018-08-20T11:20:08.457Z,5.37
2018-08-20T11:22:36.556Z,5.37
2018-08-20T11:25:04.905Z,4.87
2018-08-20T11:27:33.117Z,6.70
2018-08-20T11:30:00.928Z,8.73
2018-08-20T11:32:28.661Z,5.77
2018-08-20T11:34:56.737Z,7.53
2018-08-20T11:37:24.469Z,5.93
2018-08-20T11:39:52.157Z,8.23
2018-08-20T11:42:20.732Z,7.30
2018-08-20T11:44:48.441Z,5.83
2018-08-20T11:47:16.164Z,5.13
2018-08-20T11:49:43.871Z,13.27
2018-08-20T11:52:11.641Z,7.63
2018-08-20T11:54:39.390Z,8.70
2018-08-20T11:57:07.120Z,8.90
2018-08-20T11:59:34.854Z,5.33
2018-08-20T12:02:02.721Z,6.47
2018-08-20T12:04:30.349Z,5.13
2018-08-20T12:06:58.095Z,7.20
2018-08-20T12:09:25.782Z,6.67
2018-08-20T12:11:53.546Z,4.77
2018-08-20T12:14:21.249Z,5.60
2018-08-20T12:16:48.965Z,7.47
2018-08-20T12:19:16.675Z,8.07
2018-08-20T12:21:44.357Z,5.83
2018-08-20T12:24:12.066Z,6.47
2018-08-20T12:26:39.750Z,6.10
2018-08-20T12:29:07.486Z,6.07
2018-08-20T12:31:35.165Z,4.00
2018-08-20T12:34:02.848Z,5.33
2018-08-20T12:36:30.554Z,4.53
2018-08-20T12:38:58.256Z,5.10
2018-08-20T12:41:25.934Z,4.97
2018-08-20T12:43:53.687Z,4.10
2018-08-20T12:46:21.408Z,4.97
2018-08-20T12:48:50.759Z,4.33
2018-08-20T12:51:19.090Z,5.80
2018-08-20T12:53:46.744Z,4.43
2018-08-20T12:56:14.479Z,6.90
2018-08-20T12:58:52.315Z,5.57
2018-08-20T13:01:20.277Z,6.40
2018-08-20T13:03:48.649Z,6.30
2018-08-20T13:06:16.476Z,5.17
2018-08-20T13:08:45.069Z,4.40
2018-08-20T13:11:12.806Z,7.97
2018-08-20T13:13:40.687Z,4.77
2018-08-20T13:16:08.727Z,8.53
2018-08-20T13:18:36.348Z,4.87
2018-08-20T13:21:04.142Z,6.33
2018-08-20T13:23:31.846Z,6.37
2018-08-20T13:25:59.657Z,5.87
2018-08-20T13:28:27.421Z,4.43
2018-08-20T13:30:55.153Z,4.35
2018-08-20T13:33:22.896Z,6.60
2018-08-20T13:35:50.644Z,5.23
2018-08-20T13:38:18.484Z,7.37
2018-08-20T13:40:46.213Z,6.17
2018-08-20T13:43:13.965Z,6.80
2018-08-20T13:45:41.716Z,5.63
2018-08-20T13:48:09.909Z,7.07
2018-08-20T13:50:37.643Z,4.53
2018-08-20T13:53:05.623Z,5.20
2018-08-20T13:55:33.305Z,7.13
2018-08-20T13:58:01.072Z,7.93
2018-08-20T14:00:28.752Z,7.27
2018-08-20T14:02:56.480Z,6.47
2018-08-20T14:05:24.222Z,6.13
2018-08-20T14:07:51.949Z,4.87
2018-08-20T14:10:19.648Z,5.13
2018-08-20T14:12:47.347Z,8.53
2018-08-20T14:15:15.246Z,8.33
2018-08-20T14:17:43.520Z,6.73
2018-08-20T14:20:13.711Z,6.90
2018-08-20T14:22:42.544Z,5.30
2018-08-20T14:25:10.437Z,4.43
2018-08-20T14:27:38.110Z,6.00
2018-08-20T14:30:10.630Z,8.47
2018-08-20T14:32:38.338Z,9.20
2018-08-20T14:35:06.672Z,7.20
2018-08-20T14:37:34.370Z,7.50
2018-08-20T14:40:02.147Z,7.90
2018-08-20T14:42:30.169Z,9.87
2018-08-20T14:44:57.983Z,7.57
2018-08-20T14:47:25.948Z,4.70
2018-08-20T14:49:53.698Z,7.83
2018-08-20T14:52:21.489Z,6.73
2018-08-20T14:54:49.162Z,5.73
2018-08-20T14:57:16.976Z,4.80
2018-08-20T14:59:44.690Z,7.77
2018-08-20T15:02:12.409Z,6.60
2018-08-20T15:04:40.121Z,7.20
2018-08-20T15:07:09.379Z,6.80
2018-08-20T15:09:37.281Z,6.43
2018-08-20T15:12:05.146Z,6.23
2018-08-20T15:14:32.896Z,6.43
2018-08-20T15:17:00.672Z,8.30
2018-08-20T15:19:28.346Z,7.10
2018-08-20T15:21:56.085Z,7.53
2018-08-20T15:24:23.769Z,6.00
2018-08-20T15:26:51.451Z,6.23
2018-08-20T15:29:19.668Z,6.27
2018-08-20T15:31:47.603Z,8.43
2018-08-20T15:34:15.564Z,5.37
2018-08-20T15:36:43.270Z,5.93
2018-08-20T15:39:11.299Z,4.57
2018-08-20T15:41:39.089Z,6.90
2018-08-20T15:44:08.271Z,5.30
2018-08-20T15:46:35.971Z,8.70
2018-08-20T15:49:04.710Z,4.30
2018-08-20T15:51:32.485Z,5.87
2018-08-20T15:54:00.318Z,8.73
2018-08-20T15:56:28.365Z,8.30
2018-08-20T15:58:56.123Z,7.77
2018-08-20T16:01:23.848Z,9.37
2018-08-20T16:03:51.889Z,9.40
2018-08-20T16:06:19.628Z,13.03
2018-08-20T16:08:47.411Z,10.93
2018-08-20T16:11:15.141Z,7.53
2018-08-20T16:13:42.887Z,7.57
2018-08-20T16:16:10.665Z,8.20
2018-08-20T16:18:38.813Z,7.70
2018-08-20T16:21:06.533Z,8.03
2018-08-20T16:23:34.440Z,10.73
2018-08-20T16:26:02.169Z,10.63
2018-08-20T16:28:29.854Z,15.50
2018-08-20T16:30:57.629Z,21.23
2018-08-20T16:33:25.326Z,10.97
2018-08-20T16:35:53.001Z,14.77
2018-08-20T16:38:20.758Z,8.97
2018-08-20T16:40:48.577Z,10.73
2018-08-20T16:43:16.289Z,9.50
2018-08-20T16:45:43.977Z,10.10
2018-08-20T16:48:11.752Z,9.50
2018-08-20T16:50:40.523Z,13.97
2018-08-20T16:53:08.408Z,9.93
2018-08-20T16:55:36.080Z,10.87
2018-08-20T16:58:03.861Z,16.20
2018-08-20T17:00:31.549Z,10.70
2018-08-20T17:02:59.262Z,20.63
2018-08-20T17:05:33.140Z,13.90
2018-08-20T17:08:01.131Z,15.90
2018-08-20T17:10:29.261Z,12.40
2018-08-20T17:12:57.078Z,13.57
2018-08-20T17:15:24.814Z,14.57
2018-08-20T17:17:52.490Z,12.07
2018-08-20T17:20:20.197Z,15.80
2018-08-20T17:22:47.867Z,11.30
2018-08-20T17:25:15.578Z,12.73
2018-08-20T17:27:49.790Z,12.77
2018-08-20T17:30:17.534Z,11.87
2018-08-20T17:32:45.273Z,13.93
2018-08-20T17:35:12.950Z,15.53
2018-08-20T17:37:40.913Z,13.03
2018-08-20T17:40:09.826Z,17.63
2018-08-20T17:42:37.562Z,12.50
2018-08-20T17:45:06.741Z,13.80
2018-08-20T17:47:38.478Z,8.13
2018-08-20T17:50:10.733Z,12.10
2018-08-20T17:52:40.572Z,14.97
2018-08-20T17:55:08.271Z,11.47
2018-08-20T17:57:35.941Z,14.77
2018-08-20T18:00:43.667Z,10.60
2018-08-20T18:03:18.911Z,12.97
2018-08-20T18:05:51.230Z,11.40
2018-08-20T18:08:18.926Z,8.73
2018-08-20T18:10:46.613Z,7.60
2018-08-20T18:13:26.277Z,10.07
2018-08-20T18:15:54.003Z,10.77
2018-08-20T18:18:21.858Z,13.43
2018-08-20T18:20:49.546Z,13.43
2018-08-20T18:23:17.309Z,13.20
2018-08-20T18:25:44.959Z,12.97
2018-08-20T18:28:12.651Z,10.77
2018-08-20T18:30:40.422Z,7.90
2018-08-20T18:33:08.158Z,8.70
2018-08-20T18:35:36.659Z,12.33
2018-08-20T18:38:04.491Z,11.13
2018-08-20T18:40:32.388Z,9.67
2018-08-20T18:43:00.174Z,8.23
2018-08-20T18:45:27.883Z,7.37
2018-08-20T18:47:55.639Z,7.37
2018-08-20T18:50:23.457Z,9.63
2018-08-20T18:52:51.305Z,9.77
2018-08-20T18:55:19.059Z,9.37
2018-08-20T18:57:46.746Z,8.83
2018-08-20T19:00:15.083Z,9.80
2018-08-20T19:02:48.845Z,11.03
2018-08-20T19:05:17.557Z,10.07
2018-08-20T19:07:45.564Z,10.30
2018-08-20T19:10:20.745Z,9.03
2018-08-20T19:12:48.570Z,9.13
2018-08-20T19:15:27.493Z,10.10
2018-08-20T19:17:55.352Z,10.43
2018-08-20T19:20:23.117Z,9.63
2018-08-20T19:22:50.853Z,7.40
2018-08-20T19:25:18.557Z,8.53
2018-08-20T19:27:46.332Z,8.83
2018-08-20T19:30:19.667Z,9.90
2018-08-20T19:32:47.408Z,13.53
2018-08-20T19:35:15.145Z,8.00
2018-08-20T19:37:43.298Z,10.87
2018-08-20T19:40:11.087Z,8.60
2018-08-20T19:42:38.797Z,10.17
2018-08-20T19:45:08.598Z,8.30
2018-08-20T19:47:36.292Z,10.00
2018-08-20T19:50:05.385Z,9.00
2018-08-20T19:52:33.138Z,7.63
2018-08-20T19:55:06.178Z,9.10
2018-08-20T19:57:34.028Z,9.10
2018-08-20T20:00:02.019Z,8.57
2018-08-20T20:02:29.893Z,10.90
2018-08-20T20:05:03.591Z,13.30
2018-08-20T20:07:31.956Z,7.30
2018-08-20T20:09:59.761Z,11.13
2018-08-20T20:12:27.534Z,5.93
2018-08-20T20:14:57.639Z,8.37
2018-08-20T20:17:25.325Z,7.77
2018-08-20T20:19:53.090Z,8.70
2018-08-20T20:22:20.881Z,10.50
2018-08-20T20:24:48.585Z,10.80
2018-08-20T20:27:16.314Z,8.17
2018-08-20T20:29:43.992Z,8.23
2018-08-20T20:32:11.730Z,8.50
2018-08-20T20:34:39.490Z,7.70
2018-08-20T20:37:07.322Z,7.53
2018-08-20T20:39:35.465Z,7.70
2018-08-20T20:42:03.241Z,11.13
2018-08-20T20:44:30.949Z,7.80
2018-08-20T20:46:58.685Z,15.40
2018-08-20T20:49:26.458Z,7.63
2018-08-20T20:51:54.178Z,8.57
2018-08-20T20:54:21.837Z,11.93
2018-08-20T20:56:49.566Z,13.13
2018-08-20T20:59:17.273Z,7.13
2018-08-20T21:01:44.969Z,7.83
2018-08-20T21:04:12.685Z,9.50
2018-08-20T21:06:41.322Z,8.20
2018-08-20T21:09:10.478Z,8.97
2018-08-20T21:11:38.228Z,12.03
2018-08-20T21:14:06.001Z,8.37
2018-08-20T21:16:33.694Z,8.40
2018-08-20T21:19:04.845Z,6.67
2018-08-20T21:21:33.225Z,8.50
2018-08-20T21:24:01.049Z,9.13
2018-08-20T21:26:28.825Z,9.13
2018-08-20T21:28:56.549Z,9.23
2018-08-20T21:31:25.378Z,10.03
2018-08-20T21:33:55.154Z,6.60
2018-08-20T21:36:22.846Z,6.23
2018-08-20T21:38:50.521Z,6.40
2018-08-20T21:41:27.668Z,7.50
2018-08-20T21:43:55.418Z,7.90
2018-08-20T21:46:23.173Z,6.67
2018-08-20T21:48:50.900Z,6.40
2018-08-20T21:51:26.875Z,10.47
2018-08-20T21:53:54.578Z,6.47
2018-08-20T21:56:22.351Z,8.93
2018-08-20T21:58:50.046Z,7.70
2018-08-20T22:01:18.260Z,8.83
2018-08-20T22:03:46.321Z,7.20
2018-08-20T22:06:14.402Z,6.13
2018-08-20T22:08:42.147Z,8.03
2018-08-20T22:11:10.537Z,6.93
2018-08-20T22:13:38.353Z,7.30
2018-08-20T22:16:20.714Z,9.17
2018-08-20T22:18:56.034Z,7.27
2018-08-20T22:21:23.913Z,10.00
2018-08-20T22:23:52.284Z,8.47
2018-08-20T22:26:20.987Z,8.17
2018-08-20T22:28:50.113Z,7.67
2018-08-20T22:31:17.941Z,7.43
2018-08-20T22:33:55.084Z,7.30
2018-08-20T22:36:23.101Z,8.33
2018-08-20T22:38:59.888Z,8.33
2018-08-20T22:41:28.675Z,8.77
2018-08-20T22:43:56.392Z,8.70
2018-08-20T22:46:24.908Z,11.60
2018-08-20T22:48:55.733Z,9.23
2018-08-20T22:51:24.969Z,10.27
2018-08-20T22:53:53.885Z,6.37
2018-08-20T22:56:26.239Z,6.50
2018-08-20T22:58:57.849Z,9.70
2018-08-20T23:01:25.589Z,9.63
2018-08-20T23:03:53.258Z,8.80
2018-08-20T23:06:20.926Z,7.77
2018-08-20T23:08:48.618Z,9.93
2018-08-20T23:11:27.517Z,10.53
2018-08-20T23:13:55.253Z,8.30
2018-08-20T23:16:23.038Z,7.73
2018-08-20T23:18:50.717Z,7.60
2018-08-20T23:21:18.525Z,8.27
2018-08-20T23:23:46.190Z,9.03
2018-08-20T23:26:14.112Z,13.07
2018-08-20T23:28:41.860Z,11.10
2018-08-20T23:31:09.691Z,11.07
2018-08-20T23:33:38.213Z,9.47
2018-08-20T23:36:05.989Z,8.70
2018-08-20T23:38:33.745Z,8.40
2018-08-20T23:41:01.478Z,9.30
2018-08-20T23:43:29.696Z,10.33
2018-08-20T23:45:57.409Z,10.93
2018-08-20T23:48:25.187Z,12.63
2018-08-20T23:50:58.696Z,8.37
2018-08-20T23:53:27.505Z,9.23
2018-08-20T23:55:55.218Z,9.20
2018-08-20T23:58:22.890Z,13.73
